Latest Coastal Weather Observations for Low Head

IDT60701

Issued at 2:12 am EDT Friday 3 February 2023 (issued every 10 minutes, with the page automatically refreshed every 10 minutes)

About coastal observations | Map of coastal stations | Coastal observations for TAS | Marine services | Other Formats
Station Details ID: 091293 Name: LOW HEAD Lat: -41.05 Lon: 146.79 Height: 3.0 m
Data from the previous 72 hours. | See also: Recent months at Low Head
Date/Time
EDT
Wind Sea
Height
m
Swell Vis
km
Cloud Weather Temp
°C
Press
MSL
hPa
Rain since
9am
mm
Dir  Spd
kts
Gust
kts
Height
m
Period
s
Dir
03/02:00am SSE 5 7 - - - - - - - 10.6 984.7 9.4
03/01:30am SSW 9 10 - - - - - - - 12.1 984.6 9.4
03/01:00am S 8 10 - - - - - - - 12.3 984.8 9.4
03/12:30am SSW 8 11 - - - - - - - 12.9 985.0 9.4
03/12:00am SSW 8 11 - - - - - - - 13.2 985.2 9.4
 
Date/Time
EDT
Wind Sea
Height
m
Swell Vis
km
Cloud Weather Temp
°C
Press
MSL
hPa
Rain since
9am
mm
Dir  Spd
kts
Gust
kts
Height
m
Period
s
Dir
02/11:30pm SW 8 9 - - - - - - - 13.2 985.5 9.4
02/11:00pm SSW 10 11 - - - - - - - 13.0 985.6 9.4
02/10:30pm W 17 22 - - - - - - - 14.5 985.6 9.4
02/10:00pm W 17 22 - - - - - - - 14.6 986.0 9.4
02/09:30pm WNW 16 19 - - - - - - - 14.0 986.0 9.4
02/09:00pm WNW 18 22 - - - - - - Recent precip. 14.0 985.8 9.4
02/08:30pm WNW 11 14 - - - - - - - 13.6 985.4 9.4
02/08:00pm W 16 23 - - - - - - - 13.1 985.5 9.0
02/07:50pm WNW 15 23 - - - - - - - 13.2 985.4 8.6
02/07:30pm WNW 10 12 - - - - - - - 12.7 985.2 8.6
02/07:00pm W 13 16 - - - - - - - 12.4 985.1 8.4
02/06:30pm NW 13 17 - - - - - - - 13.8 984.8 6.2
02/06:00pm NW 16 23 - - - - - - Recent precip. 13.2 984.8 6.2
02/05:30pm WNW 13 17 - - - - - - - 12.8 985.1 6.0
02/05:00pm W 18 22 - - - - - - - 12.9 985.6 5.0
02/04:30pm W 26 34 - - - - - - - 13.6 985.3 3.2
02/04:20pm NW 30 43 - - - - - - - 13.3 985.0 1.8
02/04:19pm NNW 29 43 - - - - - - - 13.3 984.9 1.6
02/04:05pm NNW 30 40 - - - - - - - 16.5 984.9 0.8
02/04:00pm NNW 29 35 - - - - - - - 16.9 984.8 0.8
02/03:30pm NNW 27 36 - - - - - - - 16.7 985.4 0.8
02/03:00pm NNW 28 33 - - - - - - - 16.0 986.0 0.8
02/02:30pm NNW 30 35 - - - - - - - 16.7 986.5 0.8
02/02:00pm NNW 28 34 - - - - - - - 16.8 987.1 0.8
02/01:30pm NNW 27 31 - - - - - - - 16.6 987.6 0.8
02/01:00pm NNW 24 31 - - - - - - - 16.7 988.2 0.8
02/12:30pm NNW 25 29 - - - - - - - 15.3 989.0 0.8
02/12:00pm NNW 23 31 - - - - - - Rain 14.7 989.9 0.6
02/11:30am NNW 24 28 - - - - - - - 15.3 990.5 0.2
02/11:04am NNW 23 34 - - - - - - - 15.5 990.9 0.0
02/11:00am NNW 22 25 - - - - - - - 16.1 990.8 0.0
02/10:30am NNW 19 24 - - - - - - - 16.0 991.5 0.0
02/10:00am NW 21 25 - - - - - - - 15.6 992.1 0.0
02/09:31am NE 11 29 - - - - - - - 14.8 992.4 0.0
02/09:30am ESE 9 27 - - - - - - - 14.5 992.4 0.0
02/09:28am ESE 6 23 - - - - - - - 13.4 992.4 0.0
02/09:00am SSE 7 11 - - - - - - Recent precip. 12.4 993.1 3.2
02/08:30am SSE 6 8 - - - - - - - 11.9 993.6 3.2
02/08:00am S 7 8 - - - - - - - 12.0 993.8 1.0
02/07:30am WSW 18 21 - - - - - - - 12.7 994.5 1.0
02/07:13am W 20 24 - - - - - - - 13.8 994.6 0.2
02/07:00am NNW 13 20 - - - - - - - 13.9 994.5 0.2
02/06:30am WNW 8 10 - - - - - - - 13.6 994.7 0.0
02/06:00am NW 11 16 - - - - - - - 14.5 995.0 0.0
02/05:30am W 12 15 - - - - - - - 14.5 995.3 0.0
02/05:00am W 15 18 - - - - - - - 14.4 995.7 0.0
02/04:30am W 16 19 - - - - - - - 14.5 996.1 0.0
02/04:00am W 16 20 - - - - - - - 14.6 996.5 0.0
02/03:30am W 20 24 - - - - - - - 14.4 997.2 0.0
02/03:00am W 19 23 - - - - - - - 14.6 997.9 0.0
02/02:37am WSW 16 25 - - - - - - - 14.6 998.2 0.0
02/02:30am WSW 13 17 - - - - - - - 13.8 998.2 0.0
02/02:00am WSW 16 19 - - - - - - - 14.2 998.8 0.0
02/01:30am WSW 16 20 - - - - - - - 14.2 998.9 0.0
02/01:00am WSW 21 24 - - - - - - - 14.9 999.2 0.0
02/12:30am WSW 22 26 - - - - - - - 15.2 999.5 0.0
02/12:00am WSW 22 25 - - - - - - - 15.2 1000.0 0.0
 
Date/Time
EDT
Wind Sea
Height
m
Swell Vis
km
Cloud Weather Temp
°C
Press
MSL
hPa
Rain since
9am
mm
Dir  Spd
kts
Gust
kts
Height
m
Period
s
Dir
01/11:30pm W 23 27 - - - - - - - 15.6 1000.4 0.0
01/11:00pm WSW 22 25 - - - - - - - 16.0 1000.8 0.0
01/10:30pm WSW 21 24 - - - - - - - 16.4 1001.1 0.0
01/10:00pm WSW 20 23 - - - - - - - 16.7 1001.0 0.0
01/09:30pm WSW 20 24 - - - - - - - 16.9 1000.9 0.0
01/09:00pm WSW 21 25 - - - - - - - 17.4 1000.6 0.0
01/08:30pm W 21 24 - - - - - - - 17.9 1000.4 0.0
01/08:00pm W 21 25 - - - - - - - 18.5 1000.1 0.0
01/07:30pm W 22 25 - - - - - - - 18.7 999.8 0.0
01/07:00pm W 25 28 - - - - - - - 19.0 999.8 0.0
01/06:30pm W 24 29 - - - - - - - 19.4 999.6 0.0
01/06:00pm W 23 26 - - - - - - - 19.6 999.6 0.0
01/05:30pm W 22 26 - - - - - - - 20.1 999.7 0.0
01/05:00pm W 23 26 - - - - - - - 20.4 999.4 0.0
01/04:30pm W 23 27 - - - - - - - 20.3 999.3 0.0
01/04:00pm WSW 24 28 - - - - - - - 20.8 999.2 0.0
01/03:30pm WSW 25 31 - - - - - - - 20.6 999.3 0.0
01/03:00pm W 27 32 - - - - - - - 20.3 999.6 0.0
01/02:30pm W 30 36 - - - - - - - 20.3 999.5 0.0
01/02:00pm W 25 29 - - - - - - - 20.5 999.5 0.0
01/01:30pm W 22 27 - - - - - - - 20.7 999.5 0.0
01/01:00pm W 20 25 - - - - - - - 20.8 999.1 0.0
01/12:30pm W 24 29 - - - - - - - 20.2 999.4 0.0
01/12:24pm W 22 28 - - - - - - - 20.2 999.5 0.0
01/12:00pm W 15 18 - - - - - - - 20.2 999.9 0.0
01/11:30am WNW 14 16 - - - - - - - 20.0 1000.2 0.0
01/11:00am WNW 15 18 - - - - - - - 19.1 1000.4 0.0
01/10:30am WNW 17 20 - - - - - - - 18.8 1000.7 0.0
01/10:00am WNW 18 21 - - - - - - - 18.9 1000.9 0.0
01/09:30am W 16 19 - - - - - - - 18.3 1000.9 0.0
01/09:00am W 16 19 - - - - - - - 18.4 1001.1 0.0
01/08:30am W 17 21 - - - - - - - 17.6 1001.3 0.0
01/08:00am W 17 21 - - - - - - - 17.5 1001.4 0.0
01/07:30am W 18 21 - - - - - - - 17.5 1001.5 0.0
01/07:00am W 18 21 - - - - - - - 17.3 1001.6 0.0
01/06:30am W 19 22 - - - - - - - 17.3 1001.4 0.0
01/06:00am W 19 22 - - - - - - - 17.4 1001.6 0.0
01/05:30am W 20 23 - - - - - - - 17.4 1001.6 0.0
01/05:00am W 19 24 - - - - - - - 17.5 1001.5 0.0
01/04:30am W 22 26 - - - - - - - 17.2 1001.6 0.0
01/04:00am W 21 24 - - - - - - - 17.7 1001.5 0.0
01/03:30am W 23 27 - - - - - - - 17.5 1001.7 0.0
01/03:00am W 20 23 - - - - - - - 17.6 1001.8 0.0
01/02:30am W 22 25 - - - - - - - 17.7 1001.9 0.0
01/02:00am W 22 26 - - - - - - - 17.7 1002.1 0.0
01/01:30am W 23 26 - - - - - - - 17.7 1002.2 0.0
01/01:00am W 22 25 - - - - - - - 18.0 1002.4 0.0
01/12:30am W 21 24 - - - - - - - 18.3 1002.6 0.0
01/12:00am W 21 25 - - - - - - - 18.5 1002.8 0.0
 
Date/Time
EDT
Wind Sea
Height
m
Swell Vis
km
Cloud Weather Temp
°C
Press
MSL
hPa
Rain since
9am
mm
Dir  Spd
kts
Gust
kts
Height
m
Period
s
Dir
31/11:30pm W 22 25 - - - - - - - 18.7 1002.8 0.0
31/11:00pm W 24 27 - - - - - - - 19.0 1003.1 0.0
31/10:30pm W 23 27 - - - - - - - 19.2 1003.3 0.0
31/10:00pm WNW 22 25 - - - - - - - 19.3 1003.4 0.0
31/09:30pm WNW 22 27 - - - - - - - 19.4 1003.5 0.0
31/09:00pm NW 18 22 - - - - - - - 19.5 1003.5 0.0
31/08:30pm NW 19 24 - - - - - - - 19.4 1003.4 0.0
31/08:00pm NW 20 23 - - - - - - - 19.4 1003.5 0.0
31/07:30pm NW 20 23 - - - - - - - 19.3 1003.7 0.0
31/07:00pm NW 19 22 - - - - - - - 19.9 1003.8 0.0
31/06:30pm NW 18 22 - - - - - - - 20.5 1003.8 0.0
31/06:00pm NW 19 23 - - - - - - - 20.5 1004.1 0.0
31/05:30pm NW 18 22 - - - - - - - 21.1 1004.3 0.0
31/05:00pm NW 17 19 - - - - - - - 21.1 1004.7 0.0
31/04:30pm NW 16 18 - - - - - - - 21.4 1005.0 0.0
31/04:00pm NW 14 17 - - - - - - - 22.2 1005.1 0.0
31/03:30pm NW 14 17 - - - - - - - 21.9 1005.2 0.0
31/03:00pm NW 13 16 - - - - - - - 21.5 1005.6 0.0
31/02:30pm NW 11 14 - - - - - - - 22.0 1005.9 0.0
31/02:00pm NW 11 14 - - - - - - - 21.2 1006.1 0.0
31/01:30pm NNW 9 11 - - - - - - - 20.8 1006.2 0.0
31/01:00pm NW 10 11 - - - - - - - 20.7 1006.5 0.0
31/12:30pm NW 8 10 - - - - - - - 21.1 1007.0 0.0
31/12:00pm NNW 6 8 - - - - - - - 20.3 1007.1 0.0
31/11:30am N 4 6 - - - - - - - 20.0 1007.4 0.0
31/11:00am NNW 4 5 - - - - - - - 19.5 1007.5 0.0
31/10:30am WNW 6 7 - - - - - - - 20.3 1007.8 0.0
31/10:00am W 6 8 - - - - - - - 19.2 1008.1 0.0
31/09:30am W 6 8 - - - - - - - 18.4 1008.3 0.0
31/09:00am WNW 7 9 - - - - - - - 17.8 1008.5 0.0
31/08:30am NW 7 9 - - - - - - - 17.5 1008.5 0.0
31/08:00am NNE 4 6 - - - - - - - 16.5 1008.3 0.0
31/07:30am E 5 6 - - - - - - - 16.0 1008.2 0.0
31/07:00am E 6 8 - - - - - - - 15.2 1008.1 0.0
31/06:30am E 7 8 - - - - - - - 15.3 1007.9 0.0
31/06:00am E 8 9 - - - - - - - 15.4 1007.9 0.0
31/05:30am E 8 10 - - - - - - - 15.2 1008.0 0.0
31/05:00am E 7 8 - - - - - - - 15.3 1007.9 0.0
31/04:30am E 6 8 - - - - - - - 15.2 1008.1 0.0
31/04:00am E 7 8 - - - - - - - 15.0 1008.2 0.0
31/03:30am E 7 9 - - - - - - - 15.2 1008.3 0.0
31/03:00am E 7 8 - - - - - - - 15.3 1008.7 0.0
31/02:30am ENE 4 6 - - - - - - - 16.5 1009.1 0.0

Other formats

Comma delimited format used in spreadsheet applications
http://www.bom.gov.au/fwo/IDT60701/IDT60701.95964.axf

JavaScript Object Notation format (JSON) in row-major order
http://www.bom.gov.au/fwo/IDT60701/IDT60701.95964.json

Data quality

Most of these data are generated automatically and are frequently updated. Quality checks on data are not normally performed. It is possible for incorrect values to appear. Refer to information at About Latest Weather Observations and please check the disclaimer before using these data.